SBGLSBPS

Guest
Details From SBGL - Galeao Antonio Carlos Jombim
To SBPS - Porto Seguro
Flight Number -
Tags decoded
Created
Modified
Stats Distance 449 nm / 832 km
Max Altitude 0 ft / 0 m
Waypoints 2
Social Downloads 0
Likes 0
Share VATSIM

Download

Looking for another format? Having issues loading an existing format? Contact us
Advertisement - Login to hide

Notes

Requested: SBGL SBPS

Route

SBGL SBPS

ID Type Via Altitude Latitude Longitude Leg Dist Tot Dist Heading (true) Name
O SBGL APT - 0 ft / 0 m -22.80894˚ -43.24368˚ - 0 nm - Galeao Antonio Carlos Jombim
O SBPS APT - 0 ft / 0 m -16.43863˚ -39.08092˚ 449 nm 449 nm 32° / 31° Porto Seguro

Altitude Profile

Advertisement - Login to hide

Weather


0- 5 10 15 20 25 30 35+ Temperature / ° C

Clouds and Precipitation
Forecast for 2018-05-23 18:00 UTC. Updated 6 hours ago

Ground ~20,000 ft ~40,000 ft Winds

SBGL

Details ICAO SBGL (GIG)
Name Galeao Antonio Carlos Jombim
Region Brazil
Timezone America/Sao_Paulo (UTC-3.0)
Stats Elevation 28 ft / 9 m (AMSL)
Location -22.808938° -43.243681°
Runways 2
Magnetic Variation 22.811° W

METAR

SBGL 232300Z 23005KT 9999 FEW030 BKN040 22/17 Q1023

Decode

TAF

TAF SBGL 231430Z 2318/2424 17010KT 7000 SCT017 TN17/2408Z TX27/2416Z BECMG 2400/2402 29005KT SCT015 BECMG 2407/2409 33005KT SCT010 PROB40 2409/2412 3000 BR SCT007 BECMG 2412/2414 04005KT SCT017 BECMG 2414/2416 15013KT 9999 SCT020 RMK PGU

Decode

Departure Runways

ID Width Length Bearing (true) Bearing (mag) Surface Threshold Offset Overrun Length
10 148 ft / 45 m 13,128 ft / 4,001 m 74.39° 97.20° Concrete 0 ft / 0 m 175 ft / 53 m
15 154 ft / 47 m 10,418 ft / 3,175 m 125.78° 148.59° Asphalt 0 ft / 0 m 185 ft / 56 m
28 148 ft / 45 m 13,128 ft / 4,001 m 254.38° 277.19° Concrete 0 ft / 0 m 175 ft / 53 m
33 154 ft / 47 m 10,418 ft / 3,175 m 305.78° 328.59° Asphalt 0 ft / 0 m 185 ft / 56 m

SBPS

Details ICAO SBPS (BPS)
Name Porto Seguro
Region Brazil
Timezone America/Bahia (UTC-3.0)
Stats Elevation 168 ft / 51 m (AMSL)
Location -16.438625° -39.080917°
Runways 1
Magnetic Variation 23.888° W

METAR

SBPS 232300Z 08012KT 8000 -RA SCT005 BKN012 BKN020 23/22 Q1020

Decode

TAF

TAF SBPS 231600Z 2318/2418 20007KT 8000 SCT013 SCT020 TN22/2406Z TX27/2415Z TEMPO 2318/2322 5000 SHRA SCT010 SCT020 RMK PBO

Decode

Destination Runways

ID Width Length Bearing (true) Bearing (mag) Surface Threshold Offset Overrun Length
10 148 ft / 45 m 6,532 ft / 1,991 m 74.06° 97.95° Asphalt 0 ft / 0 m 195 ft / 59 m
28 148 ft / 45 m 6,532 ft / 1,991 m 254.06° 277.95° Asphalt 0 ft / 0 m 0 ft / 0 m

Popular Alternatives